sensor_id;sensor_type;location;lat;lon;timestamp;pressure;altitude;pressure_sealevel;temperature;humidity
69624;BME280;56843;52.020;5.670;2022-12-07T00:00:20;101608.44;;;0.14;95.72
69624;BME280;56843;52.020;5.670;2022-12-07T00:01:50;101609.91;;;0.10;95.88
69624;BME280;56843;52.020;5.670;2022-12-07T00:03:21;101604.34;;;0.06;95.81
69624;BME280;56843;52.020;5.670;2022-12-07T00:04:51;101614.28;;;0.04;95.90
69624;BME280;56843;52.020;5.670;2022-12-07T00:06:22;101607.91;;;0.00;95.89
69624;BME280;56843;52.020;5.670;2022-12-07T00:07:53;101612.81;;;-0.04;96.05
69624;BME280;56843;52.020;5.670;2022-12-07T00:09:23;101601.97;;;-0.07;95.98
69624;BME280;56843;52.020;5.670;2022-12-07T00:10:54;101612.13;;;-0.11;95.95
69624;BME280;56843;52.020;5.670;2022-12-07T00:12:24;101612.59;;;-0.14;95.92
69624;BME280;56843;52.020;5.670;2022-12-07T00:13:59;101613.63;;;-0.15;95.99
69624;BME280;56843;52.020;5.670;2022-12-07T00:15:30;101608.28;;;-0.20;96.00
69624;BME280;56843;52.020;5.670;2022-12-07T00:17:00;101609.56;;;-0.22;96.06
69624;BME280;56843;52.020;5.670;2022-12-07T00:18:31;101604.75;;;-0.25;96.04
69624;BME280;56843;52.020;5.670;2022-12-07T00:20:02;101605.00;;;-0.27;95.75
69624;BME280;56843;52.020;5.670;2022-12-07T00:21:35;101601.56;;;-0.27;96.27
69624;BME280;56843;52.020;5.670;2022-12-07T00:23:05;101593.13;;;-0.29;96.23
69624;BME280;56843;52.020;5.670;2022-12-07T00:24:36;101591.75;;;-0.32;96.08
69624;BME280;56843;52.020;5.670;2022-12-07T00:26:12;101593.56;;;-0.32;96.16
69624;BME280;56843;52.020;5.670;2022-12-07T00:27:43;101597.69;;;-0.36;96.33
69624;BME280;56843;52.020;5.670;2022-12-07T00:29:20;101591.63;;;-0.37;96.18
69624;BME280;56843;52.020;5.670;2022-12-07T00:30:52;101595.50;;;-0.39;96.29
69624;BME280;56843;52.020;5.670;2022-12-07T00:32:22;101600.31;;;-0.36;96.42
69624;BME280;56843;52.020;5.670;2022-12-07T00:33:53;101602.50;;;-0.33;96.56
69624;BME280;56843;52.020;5.670;2022-12-07T00:35:23;101598.81;;;-0.32;96.49
69624;BME280;56843;52.020;5.670;2022-12-07T00:36:54;101593.13;;;-0.29;96.47
69624;BME280;56843;52.020;5.670;2022-12-07T00:38:26;101589.69;;;-0.30;96.34
69624;BME280;56843;52.020;5.670;2022-12-07T00:39:57;101582.28;;;-0.33;96.27
69624;BME280;56843;52.020;5.670;2022-12-07T00:41:28;101577.50;;;-0.36;96.15
69624;BME280;56843;52.020;5.670;2022-12-07T00:42:59;101577.97;;;-0.39;96.11
69624;BME280;56843;52.020;5.670;2022-12-07T00:44:29;101581.28;;;-0.43;95.99
69624;BME280;56843;52.020;5.670;2022-12-07T00:46:00;101581.75;;;-0.46;96.07
69624;BME280;56843;52.020;5.670;2022-12-07T00:47:30;101581.38;;;-0.50;96.12
69624;BME280;56843;52.020;5.670;2022-12-07T00:49:01;101584.69;;;-0.54;95.97
69624;BME280;56843;52.020;5.670;2022-12-07T00:50:31;101589.38;;;-0.56;95.95
69624;BME280;56843;52.020;5.670;2022-12-07T00:52:02;101580.13;;;-0.59;96.17
69624;BME280;56843;52.020;5.670;2022-12-07T00:53:36;101584.00;;;-0.61;95.97
69624;BME280;56843;52.020;5.670;2022-12-07T00:55:07;101580.25;;;-0.65;96.17
69624;BME280;56843;52.020;5.670;2022-12-07T00:56:37;101576.25;;;-0.68;96.12
69624;BME280;56843;52.020;5.670;2022-12-07T00:58:08;101569.69;;;-0.70;96.21
69624;BME280;56843;52.020;5.670;2022-12-07T00:59:39;101578.00;;;-0.73;96.20
69624;BME280;56843;52.020;5.670;2022-12-07T01:01:10;101573.00;;;-0.75;96.16
69624;BME280;56843;52.020;5.670;2022-12-07T01:02:41;101572.41;;;-0.77;96.23
69624;BME280;56843;52.020;5.670;2022-12-07T01:04:11;101567.38;;;-0.79;96.23
69624;BME280;56843;52.020;5.670;2022-12-07T01:05:52;101569.69;;;-0.82;96.16
69624;BME280;56843;52.020;5.670;2022-12-07T01:07:23;101566.69;;;-0.86;96.29
69624;BME280;56843;52.020;5.670;2022-12-07T01:08:54;101566.13;;;-0.88;96.22
69624;BME280;56843;52.020;5.670;2022-12-07T01:10:26;101572.63;;;-0.90;96.26
69624;BME280;56843;52.020;5.670;2022-12-07T01:11:56;101564.75;;;-0.90;96.30
69624;BME280;56843;52.020;5.670;2022-12-07T01:13:27;101568.19;;;-0.90;96.48
69624;BME280;56843;52.020;5.670;2022-12-07T01:14:58;101573.91;;;-0.93;96.36
69624;BME280;56843;52.020;5.670;2022-12-07T01:16:30;101571.47;;;-0.94;96.38
69624;BME280;56843;52.020;5.670;2022-12-07T01:18:01;101577.97;;;-0.97;96.36
69624;BME280;56843;52.020;5.670;2022-12-07T01:19:31;101579.00;;;-0.98;96.43
69624;BME280;56843;52.020;5.670;2022-12-07T01:21:14;101575.81;;;-1.00;96.31
69624;BME280;56843;52.020;5.670;2022-12-07T01:22:45;101582.56;;;-1.04;96.32
69624;BME280;56843;52.020;5.670;2022-12-07T01:24:16;101583.56;;;-1.05;96.46
69624;BME280;56843;52.020;5.670;2022-12-07T01:25:54;101584.56;;;-1.06;96.47
69624;BME280;56843;52.020;5.670;2022-12-07T01:27:24;101584.00;;;-1.08;96.42
69624;BME280;56843;52.020;5.670;2022-12-07T01:28:55;101587.66;;;-1.09;96.46
69624;BME280;56843;52.020;5.670;2022-12-07T01:30:25;101586.06;;;-1.10;96.57
69624;BME280;56843;52.020;5.670;2022-12-07T01:31:56;101581.28;;;-1.13;96.56
69624;BME280;56843;52.020;5.670;2022-12-07T01:33:28;101575.47;;;-1.15;96.46
69624;BME280;56843;52.020;5.670;2022-12-07T01:34:59;101586.16;;;-1.16;96.58
69624;BME280;56843;52.020;5.670;2022-12-07T01:36:34;101574.09;;;-1.17;96.59
69624;BME280;56843;52.020;5.670;2022-12-07T01:38:05;101577.16;;;-1.20;96.52
69624;BME280;56843;52.020;5.670;2022-12-07T01:39:36;101577.16;;;-1.20;96.46
69624;BME280;56843;52.020;5.670;2022-12-07T01:41:06;101573.97;;;-1.22;96.24
69624;BME280;56843;52.020;5.670;2022-12-07T01:42:37;101573.16;;;-1.23;96.58
69624;BME280;56843;52.020;5.670;2022-12-07T01:44:28;101576.00;;;-1.24;96.39
69624;BME280;56843;52.020;5.670;2022-12-07T01:46:03;101586.38;;;-1.29;96.53
69624;BME280;56843;52.020;5.670;2022-12-07T01:47:34;101580.78;;;-1.33;96.45
69624;BME280;56843;52.020;5.670;2022-12-07T01:49:08;101588.06;;;-1.35;96.43
69624;BME280;56843;52.020;5.670;2022-12-07T01:50:42;101577.78;;;-1.36;96.41
69624;BME280;56843;52.020;5.670;2022-12-07T01:52:28;101582.47;;;-1.38;96.34
69624;BME280;56843;52.020;5.670;2022-12-07T01:54:00;101578.69;;;-1.42;96.54
69624;BME280;56843;52.020;5.670;2022-12-07T01:55:31;101571.66;;;-1.42;96.44
69624;BME280;56843;52.020;5.670;2022-12-07T01:57:03;101579.50;;;-1.42;96.66
69624;BME280;56843;52.020;5.670;2022-12-07T01:58:36;101573.47;;;-1.42;96.56
69624;BME280;56843;52.020;5.670;2022-12-07T02:00:08;101574.59;;;-1.38;96.81
69624;BME280;56843;52.020;5.670;2022-12-07T02:02:05;101580.31;;;-1.30;96.87
69624;BME280;56843;52.020;5.670;2022-12-07T02:03:41;101576.25;;;-1.26;96.92
69624;BME280;56843;52.020;5.670;2022-12-07T02:05:13;101576.59;;;-1.22;96.86
69624;BME280;56843;52.020;5.670;2022-12-07T02:06:44;101573.72;;;-1.21;96.80
69624;BME280;56843;52.020;5.670;2022-12-07T02:08:16;101576.91;;;-1.19;96.76
69624;BME280;56843;52.020;5.670;2022-12-07T02:09:47;101576.34;;;-1.21;96.55
69624;BME280;56843;52.020;5.670;2022-12-07T02:11:18;101567.13;;;-1.23;96.48
69624;BME280;56843;52.020;5.670;2022-12-07T02:13:05;101568.97;;;-1.24;96.43
69624;BME280;56843;52.020;5.670;2022-12-07T02:14:38;101565.16;;;-1.28;96.40
69624;BME280;56843;52.020;5.670;2022-12-07T02:18:23;101573.13;;;-1.34;96.37
69624;BME280;56843;52.020;5.670;2022-12-07T02:20:33;101574.41;;;-1.37;96.41
69624;BME280;56843;52.020;5.670;2022-12-07T02:26:07;101563.66;;;-1.47;96.67
69624;BME280;56843;52.020;5.670;2022-12-07T02:28:34;101575.75;;;-1.46;96.40
69624;BME280;56843;52.020;5.670;2022-12-07T02:31:18;101574.13;;;-1.47;96.86
69624;BME280;56843;52.020;5.670;2022-12-07T02:33:01;101568.09;;;-1.48;96.79
69624;BME280;56843;52.020;5.670;2022-12-07T02:36:31;101568.47;;;-1.44;96.73
69624;BME280;56843;52.020;5.670;2022-12-07T02:38:35;101581.31;;;-1.42;96.78
69624;BME280;56843;52.020;5.670;2022-12-07T02:40:50;101580.88;;;-1.39;96.83
69624;BME280;56843;52.020;5.670;2022-12-07T02:42:30;101571.19;;;-1.39;96.81
69624;BME280;56843;52.020;5.670;2022-12-07T02:44:07;101579.41;;;-1.35;96.78
69624;BME280;56843;52.020;5.670;2022-12-07T02:45:40;101578.16;;;-1.33;97.02
69624;BME280;56843;52.020;5.670;2022-12-07T02:47:14;101575.88;;;-1.29;97.03
69624;BME280;56843;52.020;5.670;2022-12-07T02:48:46;101580.88;;;-1.28;96.95
69624;BME280;56843;52.020;5.670;2022-12-07T02:50:20;101578.88;;;-1.26;97.05
69624;BME280;56843;52.020;5.670;2022-12-07T02:51:52;101573.63;;;-1.26;96.60
69624;BME280;56843;52.020;5.670;2022-12-07T02:55:01;101563.72;;;-1.24;96.87
69624;BME280;56843;52.020;5.670;2022-12-07T02:58:22;101575.47;;;-1.15;96.46
69624;BME280;56843;52.020;5.670;2022-12-07T03:01:48;101567.03;;;-1.05;96.43
69624;BME280;56843;52.020;5.670;2022-12-07T03:03:24;101565.53;;;-1.01;96.38
69624;BME280;56843;52.020;5.670;2022-12-07T03:06:42;101570.34;;;-0.87;95.95
69624;BME280;56843;52.020;5.670;2022-12-07T03:08:23;101564.63;;;-0.84;95.91
69624;BME280;56843;52.020;5.670;2022-12-07T03:10:05;101569.44;;;-0.81;95.62
69624;BME280;56843;52.020;5.670;2022-12-07T03:11:45;101560.56;;;-0.80;95.50
69624;BME280;56843;52.020;5.670;2022-12-07T03:13:25;101561.69;;;-0.76;95.58
69624;BME280;56843;52.020;5.670;2022-12-07T03:15:15;101563.38;;;-0.69;95.45
69624;BME280;56843;52.020;5.670;2022-12-07T03:17:00;101558.50;;;-0.66;95.41
69624;BME280;56843;52.020;5.670;2022-12-07T03:18:36;101557.78;;;-0.61;95.59
69624;BME280;56843;52.020;5.670;2022-12-07T03:20:11;101559.97;;;-0.58;95.02
69624;BME280;56843;52.020;5.670;2022-12-07T03:21:46;101556.09;;;-0.56;94.89
69624;BME280;56843;52.020;5.670;2022-12-07T03:23:19;101566.56;;;-0.56;94.85
69624;BME280;56843;52.020;5.670;2022-12-07T03:24:57;101562.59;;;-0.58;94.70
69624;BME280;56843;52.020;5.670;2022-12-07T03:26:35;101558.84;;;-0.62;94.96
69624;BME280;56843;52.020;5.670;2022-12-07T03:28:08;101561.22;;;-0.61;94.92
69624;BME280;56843;52.020;5.670;2022-12-07T03:29:45;101559.72;;;-0.57;95.17
69624;BME280;56843;52.020;5.670;2022-12-07T03:31:24;101565.88;;;-0.51;95.21
69624;BME280;56843;52.020;5.670;2022-12-07T03:33:03;101561.78;;;-0.47;94.88
69624;BME280;56843;52.020;5.670;2022-12-07T03:34:46;101555.84;;;-0.43;95.02
69624;BME280;56843;52.020;5.670;2022-12-07T03:36:24;101564.03;;;-0.39;95.03
69624;BME280;56843;52.020;5.670;2022-12-07T03:38:22;101557.19;;;-0.40;94.85
69624;BME280;56843;52.020;5.670;2022-12-07T03:40:03;101560.06;;;-0.42;94.99
69624;BME280;56843;52.020;5.670;2022-12-07T03:41:37;101559.03;;;-0.41;94.84
69624;BME280;56843;52.020;5.670;2022-12-07T03:43:08;101542.59;;;-0.36;94.77
69624;BME280;56843;52.020;5.670;2022-12-07T03:44:40;101557.97;;;-0.28;94.87
69624;BME280;56843;52.020;5.670;2022-12-07T03:48:26;101547.31;;;-0.22;94.48
69624;BME280;56843;52.020;5.670;2022-12-07T03:50:22;101551.00;;;-0.23;94.38
69624;BME280;56843;52.020;5.670;2022-12-07T03:52:43;101550.19;;;-0.23;94.43
69624;BME280;56843;52.020;5.670;2022-12-07T03:54:15;101543.25;;;-0.29;94.46
69624;BME280;56843;52.020;5.670;2022-12-07T03:55:49;101543.50;;;-0.31;94.59
69624;BME280;56843;52.020;5.670;2022-12-07T03:57:22;101544.75;;;-0.33;94.56
69624;BME280;56843;52.020;5.670;2022-12-07T03:58:54;101547.84;;;-0.36;94.60
69624;BME280;56843;52.020;5.670;2022-12-07T04:00:25;101545.22;;;-0.36;94.68
69624;BME280;56843;52.020;5.670;2022-12-07T04:02:01;101540.75;;;-0.36;94.77
69624;BME280;56843;52.020;5.670;2022-12-07T04:03:32;101542.69;;;-0.31;95.06
69624;BME280;56843;52.020;5.670;2022-12-07T04:05:02;101554.00;;;-0.31;94.82
69624;BME280;56843;52.020;5.670;2022-12-07T04:06:33;101546.25;;;-0.37;94.63
69624;BME280;56843;52.020;5.670;2022-12-07T04:08:10;101538.84;;;-0.40;94.61
69624;BME280;56843;52.020;5.670;2022-12-07T04:09:40;101531.22;;;-0.53;94.80
69624;BME280;56843;52.020;5.670;2022-12-07T04:11:12;101533.50;;;-0.57;94.74
69624;BME280;56843;52.020;5.670;2022-12-07T04:12:43;101531.78;;;-0.63;94.95
69624;BME280;56843;52.020;5.670;2022-12-07T04:14:13;101532.97;;;-0.70;95.11
69624;BME280;56843;52.020;5.670;2022-12-07T04:15:50;101531.03;;;-0.75;95.24
69624;BME280;56843;52.020;5.670;2022-12-07T04:17:21;101531.91;;;-0.81;95.38
69624;BME280;56843;52.020;5.670;2022-12-07T04:18:51;101532.03;;;-0.88;95.42
69624;BME280;56843;52.020;5.670;2022-12-07T04:20:22;101527.59;;;-0.87;95.65
69624;BME280;56843;52.020;5.670;2022-12-07T04:21:54;101533.53;;;-0.80;95.80
69624;BME280;56843;52.020;5.670;2022-12-07T04:23:26;101537.84;;;-0.74;95.89
69624;BME280;56843;52.020;5.670;2022-12-07T04:24:57;101545.38;;;-0.66;96.16
69624;BME280;56843;52.020;5.670;2022-12-07T04:26:28;101548.66;;;-0.59;96.13
69624;BME280;56843;52.020;5.670;2022-12-07T04:28:00;101553.56;;;-0.51;95.72
69624;BME280;56843;52.020;5.670;2022-12-07T04:29:31;101554.72;;;-0.47;95.65
69624;BME280;56843;52.020;5.670;2022-12-07T04:31:02;101548.09;;;-0.49;95.43
69624;BME280;56843;52.020;5.670;2022-12-07T04:32:32;101538.72;;;-0.45;95.28
69624;BME280;56843;52.020;5.670;2022-12-07T04:34:04;101548.06;;;-0.38;95.32
69624;BME280;56843;52.020;5.670;2022-12-07T04:35:35;101538.94;;;-0.35;95.35
69624;BME280;56843;52.020;5.670;2022-12-07T04:37:06;101540.63;;;-0.29;94.98
69624;BME280;56843;52.020;5.670;2022-12-07T04:38:36;101536.97;;;-0.28;95.10
69624;BME280;56843;52.020;5.670;2022-12-07T04:40:08;101542.56;;;-0.25;94.87
69624;BME280;56843;52.020;5.670;2022-12-07T04:41:41;101535.00;;;-0.21;94.94
69624;BME280;56843;52.020;5.670;2022-12-07T04:43:11;101530.09;;;-0.18;95.01
69624;BME280;56843;52.020;5.670;2022-12-07T04:44:42;101523.34;;;-0.14;94.84
69624;BME280;56843;52.020;5.670;2022-12-07T04:46:13;101518.41;;;-0.10;94.55
69624;BME280;56843;52.020;5.670;2022-12-07T04:47:43;101518.09;;;-0.14;94.95
69624;BME280;56843;52.020;5.670;2022-12-07T04:49:15;101527.91;;;-0.09;94.44
69624;BME280;56843;52.020;5.670;2022-12-07T04:50:48;101528.72;;;-0.09;94.55
69624;BME280;56843;52.020;5.670;2022-12-07T04:52:20;101529.72;;;-0.10;94.54
69624;BME280;56843;52.020;5.670;2022-12-07T04:53:51;101536.59;;;-0.09;94.49
69624;BME280;56843;52.020;5.670;2022-12-07T04:55:23;101531.56;;;-0.10;94.47
69624;BME280;56843;52.020;5.670;2022-12-07T04:56:54;101524.94;;;-0.13;94.50
69624;BME280;56843;52.020;5.670;2022-12-07T04:58:24;101527.00;;;-0.15;94.58
69624;BME280;56843;52.020;5.670;2022-12-07T04:59:55;101529.88;;;-0.16;94.64
69624;BME280;56843;52.020;5.670;2022-12-07T05:01:25;101534.56;;;-0.18;94.48
69624;BME280;56843;52.020;5.670;2022-12-07T05:02:56;101532.63;;;-0.23;94.43
69624;BME280;56843;52.020;5.670;2022-12-07T05:04:26;101524.88;;;-0.29;94.68
69624;BME280;56843;52.020;5.670;2022-12-07T05:05:57;101527.16;;;-0.33;94.84
69624;BME280;56843;52.020;5.670;2022-12-07T05:07:28;101519.78;;;-0.36;95.05
69624;BME280;56843;52.020;5.670;2022-12-07T05:08:58;101520.56;;;-0.35;95.06
69624;BME280;56843;52.020;5.670;2022-12-07T05:10:29;101511.09;;;-0.36;95.00
69624;BME280;56843;52.020;5.670;2022-12-07T05:12:00;101516.66;;;-0.33;95.18
69624;BME280;56843;52.020;5.670;2022-12-07T05:13:31;101532.88;;;-0.24;95.23
69624;BME280;56843;52.020;5.670;2022-12-07T05:15:02;101524.75;;;-0.23;95.11
69624;BME280;56843;52.020;5.670;2022-12-07T05:16:33;101524.75;;;-0.23;95.19
69624;BME280;56843;52.020;5.670;2022-12-07T05:18:04;101523.25;;;-0.19;95.07
69624;BME280;56843;52.020;5.670;2022-12-07T05:19:34;101528.25;;;-0.17;94.88
69624;BME280;56843;52.020;5.670;2022-12-07T05:21:05;101528.25;;;-0.17;95.05
69624;BME280;56843;52.020;5.670;2022-12-07T05:22:36;101526.13;;;-0.20;94.72
69624;BME280;56843;52.020;5.670;2022-12-07T05:24:07;101529.19;;;-0.23;94.86
69624;BME280;56843;52.020;5.670;2022-12-07T05:25:39;101523.84;;;-0.28;94.79
69624;BME280;56843;52.020;5.670;2022-12-07T05:27:12;101521.59;;;-0.36;94.93
69624;BME280;56843;52.020;5.670;2022-12-07T05:28:42;101528.66;;;-0.37;94.99
69624;BME280;56843;52.020;5.670;2022-12-07T05:30:13;101524.81;;;-0.46;94.95
69624;BME280;56843;52.020;5.670;2022-12-07T05:31:44;101524.47;;;-0.49;94.97
69624;BME280;56843;52.020;5.670;2022-12-07T05:33:14;101525.63;;;-0.57;95.05
69624;BME280;56843;52.020;5.670;2022-12-07T05:34:45;101522.44;;;-0.59;95.28
69624;BME280;56843;52.020;5.670;2022-12-07T05:36:16;101528.38;;;-0.63;95.36
69624;BME280;56843;52.020;5.670;2022-12-07T05:37:48;101517.22;;;-0.70;95.47
69624;BME280;56843;52.020;5.670;2022-12-07T05:39:19;101511.50;;;-0.79;95.33
69624;BME280;56843;52.020;5.670;2022-12-07T05:40:50;101525.09;;;-0.82;95.44
69624;BME280;56843;52.020;5.670;2022-12-07T05:42:24;101518.72;;;-0.86;95.45
69624;BME280;56843;52.020;5.670;2022-12-07T05:44:01;101526.78;;;-0.88;95.85
69624;BME280;56843;52.020;5.670;2022-12-07T05:45:32;101517.69;;;-0.97;95.66
69624;BME280;56843;52.020;5.670;2022-12-07T05:47:03;101526.03;;;-1.00;95.84
69624;BME280;56843;52.020;5.670;2022-12-07T05:48:33;101519.03;;;-1.06;95.94
69624;BME280;56843;52.020;5.670;2022-12-07T05:50:05;101529.53;;;-1.06;96.06
69624;BME280;56843;52.020;5.670;2022-12-07T05:51:37;101526.00;;;-1.11;96.12
69624;BME280;56843;52.020;5.670;2022-12-07T05:53:08;101522.00;;;-1.14;96.18
69624;BME280;56843;52.020;5.670;2022-12-07T05:54:39;101523.25;;;-1.16;96.17
69624;BME280;56843;52.020;5.670;2022-12-07T05:56:15;101515.50;;;-1.23;96.26
69624;BME280;56843;52.020;5.670;2022-12-07T05:57:46;101524.31;;;-1.17;96.55
69624;BME280;56843;52.020;5.670;2022-12-07T05:59:35;101516.88;;;-1.20;96.50
69624;BME280;56843;52.020;5.670;2022-12-07T06:01:06;101506.50;;;-1.27;96.51
69624;BME280;56843;52.020;5.670;2022-12-07T06:02:36;101519.94;;;-1.23;96.43
69624;BME280;56843;52.020;5.670;2022-12-07T06:04:14;101518.59;;;-1.26;96.38
69624;BME280;56843;52.020;5.670;2022-12-07T06:05:44;101520.41;;;-1.26;96.59
69624;BME280;56843;52.020;5.670;2022-12-07T06:07:16;101522.56;;;-1.23;96.69
69624;BME280;56843;52.020;5.670;2022-12-07T06:08:47;101523.38;;;-1.23;96.60
69624;BME280;56843;52.020;5.670;2022-12-07T06:10:18;101525.78;;;-1.21;96.54
69624;BME280;56843;52.020;5.670;2022-12-07T06:11:48;101518.13;;;-1.23;96.53
69624;BME280;56843;52.020;5.670;2022-12-07T06:13:37;101520.63;;;-1.28;96.89
69624;BME280;56843;52.020;5.670;2022-12-07T06:15:09;101517.44;;;-1.30;96.37
69624;BME280;56843;52.020;5.670;2022-12-07T06:16:40;101517.34;;;-1.35;96.52
69624;BME280;56843;52.020;5.670;2022-12-07T06:18:11;101525.19;;;-1.35;96.49
69624;BME280;56843;52.020;5.670;2022-12-07T06:19:42;101523.81;;;-1.37;96.62
69624;BME280;56843;52.020;5.670;2022-12-07T06:21:14;101525.41;;;-1.36;96.57
69624;BME280;56843;52.020;5.670;2022-12-07T06:22:45;101513.91;;;-1.35;96.63
69624;BME280;56843;52.020;5.670;2022-12-07T06:24:17;101523.16;;;-1.33;96.86
69624;BME280;56843;52.020;5.670;2022-12-07T06:25:48;101522.22;;;-1.27;96.97
69624;BME280;56843;52.020;5.670;2022-12-07T06:27:19;101527.03;;;-1.24;97.14
69624;BME280;56843;52.020;5.670;2022-12-07T06:28:50;101527.25;;;-1.14;97.03
69624;BME280;56843;52.020;5.670;2022-12-07T06:30:21;101530.00;;;-1.09;97.10
69624;BME280;56843;52.020;5.670;2022-12-07T06:31:52;101528.63;;;-1.00;97.05
69624;BME280;56843;52.020;5.670;2022-12-07T06:33:23;101530.91;;;-0.92;96.80
69624;BME280;56843;52.020;5.670;2022-12-07T06:34:53;101531.84;;;-0.86;96.78
69624;BME280;56843;52.020;5.670;2022-12-07T06:36:24;101534.09;;;-0.78;96.50
69624;BME280;56843;52.020;5.670;2022-12-07T06:37:54;101533.16;;;-0.72;96.35
69624;BME280;56843;52.020;5.670;2022-12-07T06:39:26;101525.41;;;-0.67;96.18
69624;BME280;56843;52.020;5.670;2022-12-07T06:40:57;101521.53;;;-0.64;95.90
69624;BME280;56843;52.020;5.670;2022-12-07T06:42:30;101523.47;;;-0.60;95.61
69624;BME280;56843;52.020;5.670;2022-12-07T06:44:03;101530.53;;;-0.60;95.48
69624;BME280;56843;52.020;5.670;2022-12-07T06:45:34;101534.97;;;-0.61;95.49
69624;BME280;56843;52.020;5.670;2022-12-07T06:47:04;101532.84;;;-0.64;95.31
69624;BME280;56843;52.020;5.670;2022-12-07T06:48:35;101531.22;;;-0.65;95.48
69624;BME280;56843;52.020;5.670;2022-12-07T06:50:06;101530.22;;;-0.64;95.43
69624;BME280;56843;52.020;5.670;2022-12-07T06:51:37;101519.72;;;-0.64;95.44
69624;BME280;56843;52.020;5.670;2022-12-07T06:53:11;101524.97;;;-0.64;95.37
69624;BME280;56843;52.020;5.670;2022-12-07T06:54:41;101524.28;;;-0.71;95.13
69624;BME280;56843;52.020;5.670;2022-12-07T06:56:12;101525.22;;;-0.77;95.26
69624;BME280;56843;52.020;5.670;2022-12-07T06:57:42;101521.44;;;-0.81;95.21
69624;BME280;56843;52.020;5.670;2022-12-07T06:59:13;101522.34;;;-0.87;95.43
69624;BME280;56843;52.020;5.670;2022-12-07T07:00:44;101529.91;;;-0.91;95.63
69624;BME280;56843;52.020;5.670;2022-12-07T07:02:15;101520.09;;;-0.95;95.63
69624;BME280;56843;52.020;5.670;2022-12-07T07:03:48;101529.22;;;-0.98;95.62
69624;BME280;56843;52.020;5.670;2022-12-07T07:05:20;101529.22;;;-0.98;95.83
69624;BME280;56843;52.020;5.670;2022-12-07T07:06:53;101540.13;;;-1.01;96.05
69624;BME280;56843;52.020;5.670;2022-12-07T07:08:24;101535.38;;;-1.04;96.13
69624;BME280;56843;52.020;5.670;2022-12-07T07:09:55;101529.88;;;-1.02;96.14
69624;BME280;56843;52.020;5.670;2022-12-07T07:11:25;101535.94;;;-1.02;96.31
69624;BME280;56843;52.020;5.670;2022-12-07T07:12:56;101530.22;;;-0.99;96.23
69624;BME280;56843;52.020;5.670;2022-12-07T07:14:27;101531.34;;;-0.95;96.48
69624;BME280;56843;52.020;5.670;2022-12-07T07:15:57;101533.88;;;-0.88;96.42
69624;BME280;56843;52.020;5.670;2022-12-07T07:17:28;101532.97;;;-0.82;96.27
69624;BME280;56843;52.020;5.670;2022-12-07T07:18:59;101532.50;;;-0.79;96.25
69624;BME280;56843;52.020;5.670;2022-12-07T07:20:30;101530.22;;;-0.76;96.11
69624;BME280;56843;52.020;5.670;2022-12-07T07:22:00;101527.34;;;-0.74;95.90
69624;BME280;56843;52.020;5.670;2022-12-07T07:23:31;101540.47;;;-0.74;95.81
69624;BME280;56843;52.020;5.670;2022-12-07T07:25:02;101531.22;;;-0.77;95.80
69624;BME280;56843;52.020;5.670;2022-12-07T07:26:32;101529.88;;;-0.79;95.76
69624;BME280;56843;52.020;5.670;2022-12-07T07:28:03;101538.41;;;-0.84;95.74
69624;BME280;56843;52.020;5.670;2022-12-07T07:29:34;101532.03;;;-0.88;95.73
69624;BME280;56843;52.020;5.670;2022-12-07T07:31:05;101535.59;;;-0.94;95.90
69624;BME280;56843;52.020;5.670;2022-12-07T07:32:36;101531.34;;;-0.95;95.93
69624;BME280;56843;52.020;5.670;2022-12-07T07:34:07;101535.81;;;-0.95;95.91
69624;BME280;56843;52.020;5.670;2022-12-07T07:35:37;101543.91;;;-0.97;95.95
69624;BME280;56843;52.020;5.670;2022-12-07T07:37:09;101537.50;;;-1.01;96.13
69624;BME280;56843;52.020;5.670;2022-12-07T07:38:41;101531.38;;;-1.06;95.99
69624;BME280;56843;52.020;5.670;2022-12-07T07:40:12;101538.19;;;-1.05;96.25
69624;BME280;56843;52.020;5.670;2022-12-07T07:41:42;101531.25;;;-1.11;96.24
69624;BME280;56843;52.020;5.670;2022-12-07T07:43:17;101538.09;;;-1.10;96.42
69624;BME280;56843;52.020;5.670;2022-12-07T07:44:48;101535.34;;;-1.15;96.36
69624;BME280;56843;52.020;5.670;2022-12-07T07:46:21;101531.69;;;-1.14;96.44
69624;BME280;56843;52.020;5.670;2022-12-07T07:47:55;101538.19;;;-1.17;96.49
69624;BME280;56843;52.020;5.670;2022-12-07T07:49:26;101541.84;;;-1.18;96.47
69624;BME280;56843;52.020;5.670;2022-12-07T07:50:57;101549.69;;;-1.18;96.44
69624;BME280;56843;52.020;5.670;2022-12-07T07:52:27;101538.88;;;-1.21;96.65
69624;BME280;56843;52.020;5.670;2022-12-07T07:53:58;101546.75;;;-1.21;96.58
69624;BME280;56843;52.020;5.670;2022-12-07T07:55:29;101539.09;;;-1.23;96.66
69624;BME280;56843;52.020;5.670;2022-12-07T07:57:00;101534.91;;;-1.24;96.70
69624;BME280;56843;52.020;5.670;2022-12-07T07:58:30;101527.91;;;-1.30;96.82
69624;BME280;56843;52.020;5.670;2022-12-07T08:00:04;101538.88;;;-1.21;96.80
69624;BME280;56843;52.020;5.670;2022-12-07T08:01:42;101540.91;;;-1.23;96.60
69624;BME280;56843;52.020;5.670;2022-12-07T08:03:13;101537.28;;;-1.22;96.82
69624;BME280;56843;52.020;5.670;2022-12-07T08:04:45;101544.13;;;-1.21;96.94
69624;BME280;56843;52.020;5.670;2022-12-07T08:06:22;101548.31;;;-1.20;96.88
69624;BME280;56843;52.020;5.670;2022-12-07T08:07:52;101541.28;;;-1.20;96.92
69624;BME280;56843;52.020;5.670;2022-12-07T08:09:23;101545.59;;;-1.14;96.96
69624;BME280;56843;52.020;5.670;2022-12-07T08:10:54;101546.88;;;-1.05;97.01
69624;BME280;56843;52.020;5.670;2022-12-07T08:12:51;101557.56;;;-0.95;97.09
69624;BME280;56843;52.020;5.670;2022-12-07T08:14:43;101539.91;;;-0.88;97.28
69624;BME280;56843;52.020;5.670;2022-12-07T08:16:14;101555.06;;;-0.66;97.17
69624;BME280;56843;52.020;5.670;2022-12-07T08:17:48;101549.03;;;-0.55;96.86
69624;BME280;56843;52.020;5.670;2022-12-07T08:19:18;101564.41;;;-0.47;96.45
69624;BME280;56843;52.020;5.670;2022-12-07T08:20:49;101562.00;;;-0.37;96.24
69624;BME280;56843;52.020;5.670;2022-12-07T08:22:20;101561.63;;;-0.29;95.95
69624;BME280;56843;52.020;5.670;2022-12-07T08:23:51;101564.78;;;-0.16;95.90
69624;BME280;56843;52.020;5.670;2022-12-07T08:25:22;101561.22;;;-0.10;95.37
69624;BME280;56843;52.020;5.670;2022-12-07T08:26:53;101555.84;;;-0.03;95.12